sensor_id;sensor_type;location;lat;lon;timestamp;pressure;altitude;pressure_sealevel;temperature;humidity
51031;BME280;37058;41.442;23.240;2023-05-29T00:00:31;100041.47;;;16.00;94.78
51031;BME280;37058;41.442;23.240;2023-05-29T00:02:58;100043.03;;;15.88;94.97
51031;BME280;37058;41.442;23.240;2023-05-29T00:05:24;100041.75;;;15.80;94.80
51031;BME280;37058;41.442;23.240;2023-05-29T00:07:50;100033.84;;;15.73;95.84
51031;BME280;37058;41.442;23.240;2023-05-29T00:10:16;100042.09;;;15.73;96.39
51031;BME280;37058;41.442;23.240;2023-05-29T00:12:42;100044.91;;;15.68;96.23
51031;BME280;37058;41.442;23.240;2023-05-29T00:15:09;100041.56;;;15.71;96.01
51031;BME280;37058;41.442;23.240;2023-05-29T00:17:38;100044.50;;;15.56;97.94
51031;BME280;37058;41.442;23.240;2023-05-29T00:20:06;100041.97;;;15.59;97.45
51031;BME280;37058;41.442;23.240;2023-05-29T00:22:36;100050.34;;;15.49;97.55
51031;BME280;37058;41.442;23.240;2023-05-29T00:25:08;100048.50;;;15.45;97.42
51031;BME280;37058;41.442;23.240;2023-05-29T00:27:35;100054.63;;;15.36;97.02
51031;BME280;37058;41.442;23.240;2023-05-29T00:30:01;100053.59;;;15.32;97.49
51031;BME280;37058;41.442;23.240;2023-05-29T00:32:27;100056.03;;;15.34;97.69
51031;BME280;37058;41.442;23.240;2023-05-29T00:34:54;100054.63;;;15.36;96.68
51031;BME280;37058;41.442;23.240;2023-05-29T00:37:20;100060.78;;;15.28;94.41
51031;BME280;37058;41.442;23.240;2023-05-29T00:39:48;100059.78;;;15.19;93.78
51031;BME280;37058;41.442;23.240;2023-05-29T00:42:14;100063.72;;;15.13;93.30
51031;BME280;37058;41.442;23.240;2023-05-29T00:44:40;100059.34;;;15.12;93.06
51031;BME280;37058;41.442;23.240;2023-05-29T00:47:07;100054.41;;;15.09;93.38
51031;BME280;37058;41.442;23.240;2023-05-29T00:49:34;100049.75;;;15.09;94.12
51031;BME280;37058;41.442;23.240;2023-05-29T00:52:02;100052.22;;;15.06;94.42
51031;BME280;37058;41.442;23.240;2023-05-29T00:54:29;100049.19;;;15.07;94.48
51031;BME280;37058;41.442;23.240;2023-05-29T00:57:00;100053.84;;;15.12;94.78
51031;BME280;37058;41.442;23.240;2023-05-29T00:59:31;100051.91;;;15.12;95.31
51031;BME280;37058;41.442;23.240;2023-05-29T01:01:59;100056.34;;;15.08;95.84
51031;BME280;37058;41.442;23.240;2023-05-29T01:04:26;100053.59;;;15.08;95.43
51031;BME280;37058;41.442;23.240;2023-05-29T01:06:53;100048.03;;;15.13;95.20
51031;BME280;37058;41.442;23.240;2023-05-29T01:09:19;100046.34;;;15.17;94.99
51031;BME280;37058;41.442;23.240;2023-05-29T01:11:46;100051.03;;;15.17;95.18
51031;BME280;37058;41.442;23.240;2023-05-29T01:17:28;100044.75;;;15.11;94.27
51031;BME280;37058;41.442;23.240;2023-05-29T01:26:10;100032.16;;;14.81;96.21
51031;BME280;37058;41.442;23.240;2023-05-29T01:28:48;100040.41;;;14.81;94.68
51031;BME280;37058;41.442;23.240;2023-05-29T01:31:20;100046.50;;;14.73;94.39
51031;BME280;37058;41.442;23.240;2023-05-29T01:33:58;100052.44;;;14.56;95.11
51031;BME280;37058;41.442;23.240;2023-05-29T01:36:25;100056.06;;;14.46;96.90
51031;BME280;37058;41.442;23.240;2023-05-29T01:38:54;100040.16;;;14.43;97.69
51031;BME280;37058;41.442;23.240;2023-05-29T01:41:22;100035.75;;;14.42;97.09
51031;BME280;37058;41.442;23.240;2023-05-29T01:43:50;100039.09;;;14.39;97.86
51031;BME280;37058;41.442;23.240;2023-05-29T01:46:16;100030.56;;;14.41;98.35
51031;BME280;37058;41.442;23.240;2023-05-29T01:48:44;100031.94;;;14.43;99.45
51031;BME280;37058;41.442;23.240;2023-05-29T01:51:12;100028.59;;;14.46;100.00
51031;BME280;37058;41.442;23.240;2023-05-29T01:53:41;100019.78;;;14.49;100.00
51031;BME280;37058;41.442;23.240;2023-05-29T01:56:08;100030.47;;;14.56;100.00
51031;BME280;37058;41.442;23.240;2023-05-29T01:58:35;100027.44;;;14.52;99.80
51031;BME280;37058;41.442;23.240;2023-05-29T02:01:02;100031.63;;;14.45;96.99
51031;BME280;37058;41.442;23.240;2023-05-29T02:03:32;100039.81;;;14.50;96.08
51031;BME280;37058;41.442;23.240;2023-05-29T02:05:59;100037.06;;;14.50;96.82
51031;BME280;37058;41.442;23.240;2023-05-29T02:08:26;100038.72;;;14.56;97.39
51031;BME280;37058;41.442;23.240;2023-05-29T02:10:52;100035.66;;;14.52;97.03
51031;BME280;37058;41.442;23.240;2023-05-29T02:13:18;100044.59;;;14.39;96.68
51031;BME280;37058;41.442;23.240;2023-05-29T02:15:44;100059.72;;;14.37;96.91
51031;BME280;37058;41.442;23.240;2023-05-29T02:18:13;100061.91;;;14.35;97.09
51031;BME280;37058;41.442;23.240;2023-05-29T02:20:40;100060.06;;;14.25;98.25
51031;BME280;37058;41.442;23.240;2023-05-29T02:23:09;100056.81;;;14.18;99.24
51031;BME280;37058;41.442;23.240;2023-05-29T02:25:35;100067.03;;;14.12;100.00
51031;BME280;37058;41.442;23.240;2023-05-29T02:28:02;100061.28;;;14.08;100.00
51031;BME280;37058;41.442;23.240;2023-05-29T02:30:28;100067.34;;;14.05;100.00
51031;BME280;37058;41.442;23.240;2023-05-29T02:32:54;100070.09;;;14.05;100.00
51031;BME280;37058;41.442;23.240;2023-05-29T02:35:20;100074.44;;;14.12;100.00
51031;BME280;37058;41.442;23.240;2023-05-29T02:37:49;100057.97;;;14.12;100.00
51031;BME280;37058;41.442;23.240;2023-05-29T02:40:16;100065.63;;;14.15;100.00
51031;BME280;37058;41.442;23.240;2023-05-29T02:42:42;100072.19;;;14.19;100.00
51031;BME280;37058;41.442;23.240;2023-05-29T02:45:09;100074.06;;;14.28;100.00
51031;BME280;37058;41.442;23.240;2023-05-29T02:47:35;100065.78;;;14.34;100.00
51031;BME280;37058;41.442;23.240;2023-05-29T02:50:03;100063.81;;;14.39;100.00
51031;BME280;37058;41.442;23.240;2023-05-29T02:52:29;100059.13;;;14.40;100.00
51031;BME280;37058;41.442;23.240;2023-05-29T02:54:56;100069.81;;;14.46;100.00
51031;BME280;37058;41.442;23.240;2023-05-29T02:57:22;100083.50;;;14.51;100.00
51031;BME280;37058;41.442;23.240;2023-05-29T02:59:49;100082.44;;;14.47;99.96
51031;BME280;37058;41.442;23.240;2023-05-29T03:02:14;100086.88;;;14.43;99.35
51031;BME280;37058;41.442;23.240;2023-05-29T03:04:40;100084.97;;;14.39;98.92
51031;BME280;37058;41.442;23.240;2023-05-29T03:07:06;100096.78;;;14.39;99.34
51031;BME280;37058;41.442;23.240;2023-05-29T03:09:35;100093.75;;;14.41;99.56
51031;BME280;37058;41.442;23.240;2023-05-29T03:12:01;100092.09;;;14.40;99.40
51031;BME280;37058;41.442;23.240;2023-05-29T03:14:27;100092.41;;;14.38;99.13
51031;BME280;37058;41.442;23.240;2023-05-29T03:16:54;100099.28;;;14.36;99.89
51031;BME280;37058;41.442;23.240;2023-05-29T03:19:20;100091.06;;;14.36;100.00
51031;BME280;37058;41.442;23.240;2023-05-29T03:21:46;100097.94;;;14.33;100.00
51031;BME280;37058;41.442;23.240;2023-05-29T03:24:12;100101.53;;;14.28;98.57
51031;BME280;37058;41.442;23.240;2023-05-29T03:26:41;100097.13;;;14.27;97.85
51031;BME280;37058;41.442;23.240;2023-05-29T03:29:07;100094.97;;;14.24;97.89
51031;BME280;37058;41.442;23.240;2023-05-29T03:31:33;100101.00;;;14.26;98.47
51031;BME280;37058;41.442;23.240;2023-05-29T03:33:59;100105.63;;;14.31;98.73
51031;BME280;37058;41.442;23.240;2023-05-29T03:36:26;100111.66;;;14.33;98.48
51031;BME280;37058;41.442;23.240;2023-05-29T03:38:52;100115.84;;;14.20;98.81
51031;BME280;37058;41.442;23.240;2023-05-29T03:41:18;100119.47;;;14.16;98.95
51031;BME280;37058;41.442;23.240;2023-05-29T03:43:44;100120.00;;;14.13;99.12
51031;BME280;37058;41.442;23.240;2023-05-29T03:46:10;100128.84;;;14.04;100.00
51031;BME280;37058;41.442;23.240;2023-05-29T03:48:35;100113.47;;;14.08;100.00
51031;BME280;37058;41.442;23.240;2023-05-29T03:51:01;100110.78;;;13.98;100.00
51031;BME280;37058;41.442;23.240;2023-05-29T03:53:27;100125.09;;;13.90;100.00
51031;BME280;37058;41.442;23.240;2023-05-29T03:55:53;100125.13;;;13.75;100.00
51031;BME280;37058;41.442;23.240;2023-05-29T03:58:19;100129.00;;;13.69;100.00
51031;BME280;37058;41.442;23.240;2023-05-29T04:00:45;100128.22;;;13.63;100.00
51031;BME280;37058;41.442;23.240;2023-05-29T04:03:10;100145.53;;;13.58;100.00
51031;BME280;37058;41.442;23.240;2023-05-29T04:05:36;100145.78;;;13.57;100.00
51031;BME280;37058;41.442;23.240;2023-05-29T04:08:02;100147.97;;;13.65;100.00
51031;BME280;37058;41.442;23.240;2023-05-29T04:10:30;100143.28;;;13.71;100.00
51031;BME280;37058;41.442;23.240;2023-05-29T04:13:00;100147.41;;;13.73;100.00
51031;BME280;37058;41.442;23.240;2023-05-29T04:15:27;100148.72;;;13.81;100.00
51031;BME280;37058;41.442;23.240;2023-05-29T04:17:54;100154.78;;;13.83;100.00
51031;BME280;37058;41.442;23.240;2023-05-29T04:20:21;100148.13;;;13.94;100.00
51031;BME280;37058;41.442;23.240;2023-05-29T04:22:47;100146.72;;;14.02;100.00
51031;BME280;37058;41.442;23.240;2023-05-29T04:25:13;100151.06;;;14.13;100.00
51031;BME280;37058;41.442;23.240;2023-05-29T04:27:38;100137.78;;;14.25;100.00
51031;BME280;37058;41.442;23.240;2023-05-29T04:30:06;100144.63;;;14.33;100.00
51031;BME280;37058;41.442;23.240;2023-05-29T04:32:33;100143.50;;;14.39;100.00
51031;BME280;37058;41.442;23.240;2023-05-29T04:34:59;100150.03;;;14.48;100.00
51031;BME280;37058;41.442;23.240;2023-05-29T04:37:32;100151.63;;;14.60;100.00
51031;BME280;37058;41.442;23.240;2023-05-29T04:40:04;100154.84;;;14.72;100.00
51031;BME280;37058;41.442;23.240;2023-05-29T04:42:35;100157.28;;;14.79;100.00
51031;BME280;37058;41.442;23.240;2023-05-29T04:45:02;100165.16;;;14.85;100.00
51031;BME280;37058;41.442;23.240;2023-05-29T04:47:31;100168.97;;;14.94;100.00
51031;BME280;37058;41.442;23.240;2023-05-29T04:50:01;100166.69;;;15.02;100.00
51031;BME280;37058;41.442;23.240;2023-05-29T04:52:27;100172.97;;;15.07;100.00
51031;BME280;37058;41.442;23.240;2023-05-29T04:54:54;100172.09;;;15.12;100.00
51031;BME280;37058;41.442;23.240;2023-05-29T04:57:22;100174.22;;;15.20;100.00
51031;BME280;37058;41.442;23.240;2023-05-29T04:59:48;100182.66;;;15.29;100.00
51031;BME280;37058;41.442;23.240;2023-05-29T05:02:14;100185.31;;;15.39;100.00
51031;BME280;37058;41.442;23.240;2023-05-29T05:04:40;100189.13;;;15.43;100.00
51031;BME280;37058;41.442;23.240;2023-05-29T05:07:06;100186.09;;;15.45;100.00
51031;BME280;37058;41.442;23.240;2023-05-29T05:09:32;100185.47;;;15.53;100.00
51031;BME280;37058;41.442;23.240;2023-05-29T05:11:58;100193.25;;;15.46;100.00
51031;BME280;37058;41.442;23.240;2023-05-29T05:14:24;100186.50;;;15.57;100.00
51031;BME280;37058;41.442;23.240;2023-05-29T05:16:50;100180.38;;;15.65;100.00
51031;BME280;37058;41.442;23.240;2023-05-29T05:19:16;100183.06;;;15.75;100.00
51031;BME280;37058;41.442;23.240;2023-05-29T05:21:42;100180.25;;;15.80;100.00
51031;BME280;37058;41.442;23.240;2023-05-29T05:24:08;100182.88;;;15.91;100.00
51031;BME280;37058;41.442;23.240;2023-05-29T05:26:34;100180.00;;;16.01;100.00
51031;BME280;37058;41.442;23.240;2023-05-29T05:29:00;100185.38;;;16.11;100.00
51031;BME280;37058;41.442;23.240;2023-05-29T05:31:26;100184.72;;;16.19;99.44
51031;BME280;37058;41.442;23.240;2023-05-29T05:33:52;100180.25;;;16.23;100.00
51031;BME280;37058;41.442;23.240;2023-05-29T05:36:19;100191.22;;;16.29;100.00
51031;BME280;37058;41.442;23.240;2023-05-29T05:38:45;100187.78;;;16.37;100.00
51031;BME280;37058;41.442;23.240;2023-05-29T05:41:11;100184.66;;;16.43;100.00
51031;BME280;37058;41.442;23.240;2023-05-29T05:43:37;100191.53;;;16.46;100.00
51031;BME280;37058;41.442;23.240;2023-05-29T05:46:03;100188.44;;;16.47;99.44
51031;BME280;37058;41.442;23.240;2023-05-29T05:48:29;100195.09;;;16.46;99.21
51031;BME280;37058;41.442;23.240;2023-05-29T05:50:55;100189.34;;;16.43;98.33
51031;BME280;37058;41.442;23.240;2023-05-29T05:53:21;100184.88;;;16.47;99.80
51031;BME280;37058;41.442;23.240;2023-05-29T05:55:47;100182.34;;;16.51;99.57
51031;BME280;37058;41.442;23.240;2023-05-29T05:58:13;100180.19;;;16.66;99.33
51031;BME280;37058;41.442;23.240;2023-05-29T06:00:40;100181.69;;;16.78;98.64
51031;BME280;37058;41.442;23.240;2023-05-29T06:03:06;100184.97;;;16.80;98.17
51031;BME280;37058;41.442;23.240;2023-05-29T06:05:32;100193.78;;;16.82;97.64
51031;BME280;37058;41.442;23.240;2023-05-29T06:07:59;100185.50;;;16.82;97.14
51031;BME280;37058;41.442;23.240;2023-05-29T06:10:25;100186.88;;;16.98;96.66
51031;BME280;37058;41.442;23.240;2023-05-29T06:12:51;100189.56;;;17.03;94.19
51031;BME280;37058;41.442;23.240;2023-05-29T06:15:18;100190.81;;;17.11;96.28
51031;BME280;37058;41.442;23.240;2023-05-29T06:17:43;100193.56;;;17.11;97.77
51031;BME280;37058;41.442;23.240;2023-05-29T06:20:10;100201.03;;;17.10;96.13
51031;BME280;37058;41.442;23.240;2023-05-29T06:22:40;100194.31;;;17.17;96.55
51031;BME280;37058;41.442;23.240;2023-05-29T06:25:06;100199.75;;;17.22;96.42
51031;BME280;37058;41.442;23.240;2023-05-29T06:27:32;100199.97;;;17.25;94.07
51031;BME280;37058;41.442;23.240;2023-05-29T06:29:58;100201.28;;;17.28;93.05
51031;BME280;37058;41.442;23.240;2023-05-29T06:32:24;100205.47;;;17.25;90.06
51031;BME280;37058;41.442;23.240;2023-05-29T06:34:50;100205.19;;;17.27;92.19
51031;BME280;37058;41.442;23.240;2023-05-29T06:37:15;100205.69;;;17.29;90.40
51031;BME280;37058;41.442;23.240;2023-05-29T06:39:45;100208.66;;;17.32;89.11
51031;BME280;37058;41.442;23.240;2023-05-29T06:42:11;100202.00;;;17.33;89.90
51031;BME280;37058;41.442;23.240;2023-05-29T06:44:37;100202.72;;;17.39;89.08
51031;BME280;37058;41.442;23.240;2023-05-29T06:47:05;100207.69;;;17.42;88.37
51031;BME280;37058;41.442;23.240;2023-05-29T06:49:31;100207.06;;;17.45;86.17
51031;BME280;37058;41.442;23.240;2023-05-29T06:51:57;100215.25;;;17.50;84.70
51031;BME280;37058;41.442;23.240;2023-05-29T06:54:22;100209.72;;;17.50;83.87
51031;BME280;37058;41.442;23.240;2023-05-29T06:56:48;100214.03;;;17.57;82.62
51031;BME280;37058;41.442;23.240;2023-05-29T06:59:14;100213.03;;;17.66;82.62
51031;BME280;37058;41.442;23.240;2023-05-29T07:01:40;100218.66;;;17.75;82.31
51031;BME280;37058;41.442;23.240;2023-05-29T07:04:06;100215.28;;;17.78;82.44
51031;BME280;37058;41.442;23.240;2023-05-29T07:06:32;100215.22;;;17.83;81.80
51031;BME280;37058;41.442;23.240;2023-05-29T07:08:59;100214.50;;;17.91;79.83
51031;BME280;37058;41.442;23.240;2023-05-29T07:11:25;100213.88;;;17.94;80.27
51031;BME280;37058;41.442;23.240;2023-05-29T07:13:53;100215.22;;;17.97;80.29
51031;BME280;37058;41.442;23.240;2023-05-29T07:16:20;100212.88;;;18.04;79.85
51031;BME280;37058;41.442;23.240;2023-05-29T07:18:46;100215.94;;;18.16;79.99
51031;BME280;37058;41.442;23.240;2023-05-29T07:21:12;100219.81;;;18.29;79.80
51031;BME280;37058;41.442;23.240;2023-05-29T07:23:39;100212.91;;;18.40;78.75
51031;BME280;37058;41.442;23.240;2023-05-29T07:26:05;100214.03;;;18.53;77.38
51031;BME280;37058;41.442;23.240;2023-05-29T07:28:31;100207.66;;;18.67;76.69
51031;BME280;37058;41.442;23.240;2023-05-29T07:30:57;100206.81;;;18.80;76.90
51031;BME280;37058;41.442;23.240;2023-05-29T07:33:23;100204.81;;;18.94;76.40
51031;BME280;37058;41.442;23.240;2023-05-29T07:35:49;100207.50;;;19.08;76.76
51031;BME280;37058;41.442;23.240;2023-05-29T07:38:15;100195.13;;;19.28;76.49
51031;BME280;37058;41.442;23.240;2023-05-29T07:40:41;100198.53;;;19.56;74.34
51031;BME280;37058;41.442;23.240;2023-05-29T07:43:07;100196.88;;;19.78;72.63
51031;BME280;37058;41.442;23.240;2023-05-29T07:45:33;100191.38;;;19.95;71.13
51031;BME280;37058;41.442;23.240;2023-05-29T07:47:58;100199.72;;;20.04;71.23
51031;BME280;37058;41.442;23.240;2023-05-29T07:50:24;100194.06;;;20.18;70.77
51031;BME280;37058;41.442;23.240;2023-05-29T07:52:51;100189.66;;;20.25;68.85
51031;BME280;37058;41.442;23.240;2023-05-29T07:55:18;100196.88;;;20.35;68.66
51031;BME280;37058;41.442;23.240;2023-05-29T07:57:44;100192.97;;;20.45;68.63
51031;BME280;37058;41.442;23.240;2023-05-29T08:00:10;100186.31;;;20.54;69.29
51031;BME280;37058;41.442;23.240;2023-05-29T08:02:37;100188.06;;;20.50;69.38
51031;BME280;37058;41.442;23.240;2023-05-29T08:05:04;100184.00;;;20.39;69.79
51031;BME280;37058;41.442;23.240;2023-05-29T08:07:30;100184.16;;;20.34;69.22
51031;BME280;37058;41.442;23.240;2023-05-29T08:09:56;100183.00;;;20.35;71.35
51031;BME280;37058;41.442;23.240;2023-05-29T08:12:22;100182.00;;;20.22;73.88
51031;BME280;37058;41.442;23.240;2023-05-29T08:14:47;100186.69;;;20.04;72.43
51031;BME280;37058;41.442;23.240;2023-05-29T08:17:13;100184.56;;;20.01;73.88
51031;BME280;37058;41.442;23.240;2023-05-29T08:19:39;100181.44;;;19.94;73.49
51031;BME280;37058;41.442;23.240;2023-05-29T08:22:05;100176.63;;;19.77;72.87
51031;BME280;37058;41.442;23.240;2023-05-29T08:24:31;100179.25;;;19.74;74.07
51031;BME280;37058;41.442;23.240;2023-05-29T08:26:57;100169.94;;;19.69;73.57
51031;BME280;37058;41.442;23.240;2023-05-29T08:29:23;100177.44;;;19.69;73.73
51031;BME280;37058;41.442;23.240;2023-05-29T08:31:49;100172.41;;;19.71;73.80
51031;BME280;37058;41.442;23.240;2023-05-29T08:34:15;100164.59;;;19.82;74.42
51031;BME280;37058;41.442;23.240;2023-05-29T08:36:41;100178.66;;;19.94;72.70
51031;BME280;37058;41.442;23.240;2023-05-29T08:39:08;100175.75;;;19.99;73.45
51031;BME280;37058;41.442;23.240;2023-05-29T08:44:14;100172.19;;;20.07;73.21
51031;BME280;37058;41.442;23.240;2023-05-29T08:46:43;100167.94;;;20.01;72.79
51031;BME280;37058;41.442;23.240;2023-05-29T08:49:11;100165.66;;;20.03;72.91
51031;BME280;37058;41.442;23.240;2023-05-29T08:51:41;100165.78;;;19.89;72.57
51031;BME280;37058;41.442;23.240;2023-05-29T08:54:11;100164.66;;;19.90;73.41
51031;BME280;37058;41.442;23.240;2023-05-29T08:56:38;100154.22;;;19.96;73.75
51031;BME280;37058;41.442;23.240;2023-05-29T08:59:04;100161.38;;;19.97;72.81
51031;BME280;37058;41.442;23.240;2023-05-29T09:01:30;100159.94;;;20.00;74.06
51031;BME280;37058;41.442;23.240;2023-05-29T09:03:56;100154.53;;;19.95;73.12
51031;BME280;37058;41.442;23.240;2023-05-29T09:06:23;100153.41;;;19.96;73.85
51031;BME280;37058;41.442;23.240;2023-05-29T09:08:52;100151.75;;;19.95;75.04
51031;BME280;37058;41.442;23.240;2023-05-29T09:11:18;100154.56;;;20.03;75.43
51031;BME280;37058;41.442;23.240;2023-05-29T09:13:46;100152.91;;;20.02;74.63
51031;BME280;37058;41.442;23.240;2023-05-29T09:16:12;100151.31;;;20.01;74.81
51031;BME280;37058;41.442;23.240;2023-05-29T09:18:38;100142.84;;;20.06;75.06
51031;BME280;37058;41.442;23.240;2023-05-29T09:21:08;100147.03;;;19.95;74.77
51031;BME280;37058;41.442;23.240;2023-05-29T09:23:36;100148.34;;;19.98;76.01
51031;BME280;37058;41.442;23.240;2023-05-29T09:26:03;100144.44;;;20.07;75.67
51031;BME280;37058;41.442;23.240;2023-05-29T09:28:31;100146.13;;;20.26;75.94
51031;BME280;37058;41.442;23.240;2023-05-29T09:30:57;100146.28;;;20.38;74.55
51031;BME280;37058;41.442;23.240;2023-05-29T09:33:25;100143.06;;;20.53;73.85
51031;BME280;37058;41.442;23.240;2023-05-29T09:35:52;100139.00;;;20.60;72.26
51031;BME280;37058;41.442;23.240;2023-05-29T09:38:19;100137.50;;;20.71;72.71
51031;BME280;37058;41.442;23.240;2023-05-29T09:40:46;100130.00;;;20.80;73.08
51031;BME280;37058;41.442;23.240;2023-05-29T09:43:19;100130.97;;;21.02;72.86
51031;BME280;37058;41.442;23.240;2023-05-29T09:45:49;100121.25;;;21.25;71.78
51031;BME280;37058;41.442;23.240;2023-05-29T09:48:23;100133.31;;;21.29;70.46
51031;BME280;37058;41.442;23.240;2023-05-29T09:50:49;100115.03;;;21.28;69.71
51031;BME280;37058;41.442;23.240;2023-05-29T09:53:20;100119.59;;;21.33;69.69
51031;BME280;37058;41.442;23.240;2023-05-29T09:55:48;100116.03;;;21.32;70.14
51031;BME280;37058;41.442;23.240;2023-05-29T09:58:24;100116.97;;;21.36;69.32
51031;BME280;37058;41.442;23.240;2023-05-29T10:00:52;100107.50;;;21.37;69.08
51031;BME280;37058;41.442;23.240;2023-05-29T10:03:19;100107.16;;;21.48;68.53
51031;BME280;37058;41.442;23.240;2023-05-29T10:05:52;100105.13;;;21.57;67.67
51031;BME280;37058;41.442;23.240;2023-05-29T10:08:20;100104.50;;;21.60;67.10
51031;BME280;37058;41.442;23.240;2023-05-29T10:10:49;100101.38;;;21.61;66.75
51031;BME280;37058;41.442;23.240;2023-05-29T10:13:21;100099.69;;;21.69;67.02
51031;BME280;37058;41.442;23.240;2023-05-29T10:15:49;100089.19;;;21.75;66.88
51031;BME280;37058;41.442;23.240;2023-05-29T10:18:26;100090.84;;;21.76;67.14
51031;BME280;37058;41.442;23.240;2023-05-29T10:20:56;100083.59;;;21.83;66.86
51031;BME280;37058;41.442;23.240;2023-05-29T10:23:25;100082.91;;;21.86;66.94
51031;BME280;37058;41.442;23.240;2023-05-29T10:25:54;100077.13;;;22.00;66.77
51031;BME280;37058;41.442;23.240;2023-05-29T10:28:22;100074.88;;;22.15;67.16
51031;BME280;37058;41.442;23.240;2023-05-29T10:31:03;100072.72;;;22.20;66.62
51031;BME280;37058;41.442;23.240;2023-05-29T10:33:59;100068.25;;;22.28;66.63
51031;BME280;37058;41.442;23.240;2023-05-29T10:36:38;100072.25;;;22.39;66.63
51031;BME280;37058;41.442;23.240;2023-05-29T10:39:06;100069.88;;;22.50;65.99
51031;BME280;37058;41.442;23.240;2023-05-29T10:41:33;100068.63;;;22.60;65.72
51031;BME280;37058;41.442;23.240;2023-05-29T10:44:00;100069.00;;;22.70;65.23
51031;BME280;37058;41.442;23.240;2023-05-29T10:49:18;100057.00;;;22.91;63.71
51031;BME280;37058;41.442;23.240;2023-05-29T10:51:44;100046.28;;;23.02;63.31
51031;BME280;37058;41.442;23.240;2023-05-29T10:54:11;100048.72;;;23.03;61.38
51031;BME280;37058;41.442;23.240;2023-05-29T10:56:37;100045.94;;;23.15;61.36
51031;BME280;37058;41.442;23.240;2023-05-29T10:59:03;100042.72;;;23.26;61.60
51031;BME280;37058;41.442;23.240;2023-05-29T11:01:30;100046.53;;;23.33;60.74
51031;BME280;37058;41.442;23.240;2023-05-29T11:06:44;100022.75;;;23.61;59.36
51031;BME280;37058;41.442;23.240;2023-05-29T11:12:23;100011.91;;;23.71;58.12
51031;BME280;37058;41.442;23.240;2023-05-29T11:15:10;100014.38;;;23.85;59.26
51031;BME280;37058;41.442;23.240;2023-05-29T11:20:06;100010.94;;;24.04;57.40
51031;BME280;37058;41.442;23.240;2023-05-29T11:25:15;100002.88;;;24.15;53.21
51031;BME280;37058;41.442;23.240;2023-05-29T11:27:43;100002.28;;;24.21;54.43
51031;BME280;37058;41.442;23.240;2023-05-29T11:30:10;100003.75;;;24.31;55.46
51031;BME280;37058;41.442;23.240;2023-05-29T11:32:37;99999.53;;;24.37;53.12
51031;BME280;37058;41.442;23.240;2023-05-29T11:35:10;100005.31;;;24.44;52.92
51031;BME280;37058;41.442;23.240;2023-05-29T11:37:44;100003.47;;;24.49;54.06
51031;BME280;37058;41.442;23.240;2023-05-29T11:40:14;100001.13;;;24.51;54.71
51031;BME280;37058;41.442;23.240;2023-05-29T11:42:46;100004.63;;;24.48;50.87
51031;BME280;37058;41.442;23.240;2023-05-29T11:45:19;100007.09;;;24.49;49.29
51031;BME280;37058;41.442;23.240;2023-05-29T11:47:59;99996.72;;;24.50;50.63
51031;BME280;37058;41.442;23.240;2023-05-29T11:50:32;100003.22;;;24.54;49.63
51031;BME280;37058;41.442;23.240;2023-05-29T11:53:00;100003.66;;;24.56;49.88
51031;BME280;37058;41.442;23.240;2023-05-29T11:55:27;99998.06;;;24.56;50.56
51031;BME280;37058;41.442;23.240;2023-05-29T11:58:01;99999.25;;;24.55;47.10
51031;BME280;37058;41.442;23.240;2023-05-29T12:00:38;99993.84;;;24.46;44.46
51031;BME280;37058;41.442;23.240;2023-05-29T12:03:06;99989.41;;;24.45;44.47
51031;BME280;37058;41.442;23.240;2023-05-29T12:05:47;99979.97;;;24.50;44.13
51031;BME280;37058;41.442;23.240;2023-05-29T12:08:14;99977.53;;;24.48;44.31
51031;BME280;37058;41.442;23.240;2023-05-29T12:10:52;99974.41;;;24.37;44.26
51031;BME280;37058;41.442;23.240;2023-05-29T12:13:22;99963.50;;;24.32;45.94
51031;BME280;37058;41.442;23.240;2023-05-29T12:15:56;99961.78;;;24.28;46.56
51031;BME280;37058;41.442;23.240;2023-05-29T12:18:24;99966.56;;;24.27;46.67
51031;BME280;37058;41.442;23.240;2023-05-29T12:20:50;99967.38;;;24.28;46.52
51031;BME280;37058;41.442;23.240;2023-05-29T12:23:18;99951.25;;;24.21;46.80
51031;BME280;37058;41.442;23.240;2023-05-29T12:25:46;99959.97;;;24.19;47.97
51031;BME280;37058;41.442;23.240;2023-05-29T12:28:16;99956.38;;;24.19;48.08
51031;BME280;37058;41.442;23.240;2023-05-29T12:30:45;99951.25;;;24.21;49.09
51031;BME280;37058;41.442;23.240;2023-05-29T12:33:33;99943.56;;;24.18;49.54
51031;BME280;37058;41.442;23.240;2023-05-29T12:36:08;99940.34;;;24.16;49.41
51031;BME280;37058;41.442;23.240;2023-05-29T12:38:51;99941.16;;;24.16;50.42
51031;BME280;37058;41.442;23.240;2023-05-29T12:41:33;99935.53;;;24.29;48.06
51031;BME280;37058;41.442;23.240;2023-05-29T12:44:03;99936.41;;;24.33;49.12
51031;BME280;37058;41.442;23.240;2023-05-29T12:46:38;99928.69;;;24.42;48.86
51031;BME280;37058;41.442;23.240;2023-05-29T12:49:17;99923.34;;;24.49;49.25
51031;BME280;37058;41.442;23.240;2023-05-29T12:51:46;99912.06;;;24.46;49.65
51031;BME280;37058;41.442;23.240;2023-05-29T12:54:16;99911.38;;;24.49;48.41
51031;BME280;37058;41.442;23.240;2023-05-29T12:56:42;99909.38;;;24.49;48.91
51031;BME280;37058;41.442;23.240;2023-05-29T12:59:09;99909.56;;;24.56;50.19
51031;BME280;37058;41.442;23.240;2023-05-29T13:01:39;99904.41;;;24.58;50.07
51031;BME280;37058;41.442;23.240;2023-05-29T13:04:05;99904.88;;;24.60;50.17
51031;BME280;37058;41.442;23.240;2023-05-29T13:06:36;99898.50;;;24.60;49.39